createdAt,value
2017-07-17T00:00:20.572Z,1012.9
2017-07-17T00:01:22.622Z,1012.9
2017-07-17T00:02:24.683Z,1012.8
2017-07-17T00:03:26.738Z,1012.9
2017-07-17T00:04:28.794Z,1012.9
2017-07-17T00:05:30.857Z,1012.9
2017-07-17T00:06:32.907Z,1012.9
2017-07-17T00:07:34.972Z,1012.9
2017-07-17T00:08:37.031Z,1012.9
2017-07-17T00:09:39.078Z,1012.9
2017-07-17T00:10:41.139Z,1013
2017-07-17T00:11:43.565Z,1012.9
2017-07-17T00:12:45.613Z,1012.9
2017-07-17T00:13:47.665Z,1012.9
2017-07-17T00:14:49.723Z,1012.9
2017-07-17T00:15:51.787Z,1012.9
2017-07-17T00:16:53.840Z,1013
2017-07-17T00:17:55.898Z,1012.9
2017-07-17T00:18:57.952Z,1012.9
2017-07-17T00:20:00.008Z,1013
2017-07-17T00:21:02.068Z,1012.9
2017-07-17T00:22:04.122Z,1012.9
2017-07-17T00:23:06.168Z,1013
2017-07-17T00:24:08.257Z,1013
2017-07-17T00:25:10.279Z,1013
2017-07-17T00:26:12.340Z,1013
2017-07-17T00:27:14.394Z,1013
2017-07-17T00:28:16.799Z,1013
2017-07-17T00:29:18.853Z,1013
2017-07-17T00:30:20.915Z,1013
2017-07-17T00:31:22.969Z,1013
2017-07-17T00:32:25.026Z,1013
2017-07-17T00:33:27.074Z,1013
2017-07-17T00:34:29.137Z,1013
2017-07-17T00:35:31.538Z,1013
2017-07-17T00:36:33.952Z,1013
2017-07-17T00:37:36.105Z,1013
2017-07-17T00:38:38.165Z,1013
2017-07-17T00:39:40.229Z,1013.1
2017-07-17T00:40:42.270Z,1013.1
2017-07-17T00:41:44.331Z,1013.1
2017-07-17T00:42:46.391Z,1013
2017-07-17T00:43:48.442Z,1013
2017-07-17T00:44:50.497Z,1013.1
2017-07-17T00:45:52.549Z,1013
2017-07-17T00:46:54.605Z,1013
2017-07-17T00:47:56.661Z,1013
2017-07-17T00:48:58.709Z,1013
2017-07-17T00:50:00.773Z,1013
2017-07-17T00:51:02.822Z,1013
2017-07-17T00:52:04.871Z,1013
2017-07-17T00:53:06.925Z,1013
2017-07-17T00:54:08.980Z,1013.1
2017-07-17T00:55:11.025Z,1013.1
2017-07-17T00:56:13.081Z,1013.1
2017-07-17T00:57:15.138Z,1013.1
2017-07-17T00:58:17.196Z,1013.1
2017-07-17T00:59:19.242Z,1013
2017-07-17T01:00:21.295Z,1013
2017-07-17T01:01:23.353Z,1013.1
2017-07-17T01:02:25.414Z,1013
2017-07-17T01:03:27.464Z,1013.1
2017-07-17T01:04:29.522Z,1013
2017-07-17T01:05:31.569Z,1013.1
2017-07-17T01:06:33.619Z,1013.1
2017-07-17T01:07:35.670Z,1013.1
2017-07-17T01:08:37.735Z,1013.2
2017-07-17T01:09:39.785Z,1013.2
2017-07-17T01:10:41.836Z,1013.2
2017-07-17T01:11:43.893Z,1013.2
2017-07-17T01:12:45.949Z,1013.2
2017-07-17T01:13:48.007Z,1013.2
2017-07-17T01:14:50.061Z,1013.2
2017-07-17T01:15:52.112Z,1013.3
2017-07-17T01:16:54.171Z,1013.2
2017-07-17T01:17:56.224Z,1013.2
2017-07-17T01:18:58.283Z,1013.2
2017-07-17T01:20:00.341Z,1013.2
2017-07-17T01:21:02.723Z,1013.2
2017-07-17T01:22:04.782Z,1013.2
2017-07-17T01:23:06.830Z,1013.3
2017-07-17T01:24:08.884Z,1013.3
2017-07-17T01:25:10.945Z,1013.3
2017-07-17T01:26:12.999Z,1013.3
2017-07-17T01:27:15.054Z,1013.3
2017-07-17T01:28:17.099Z,1013.3
2017-07-17T01:29:19.156Z,1013.3
2017-07-17T01:30:21.217Z,1013.3
2017-07-17T01:31:23.272Z,1013.3
2017-07-17T01:32:25.326Z,1013.3
2017-07-17T01:33:27.386Z,1013.3
2017-07-17T01:34:29.439Z,1013.3
2017-07-17T01:35:31.494Z,1013.3
2017-07-17T01:36:33.607Z,1013.3
2017-07-17T01:37:35.745Z,1013.3
2017-07-17T01:38:38.157Z,1013.3
2017-07-17T01:39:40.201Z,1013.3
2017-07-17T01:40:42.258Z,1013.3
2017-07-17T01:41:44.306Z,1013.3
2017-07-17T01:42:46.357Z,1013.3
2017-07-17T01:43:48.418Z,1013.3
2017-07-17T01:44:50.462Z,1013.3
2017-07-17T01:45:52.520Z,1013.3
2017-07-17T01:46:54.565Z,1013.3
2017-07-17T01:47:56.611Z,1013.3
2017-07-17T01:48:58.673Z,1013.3
2017-07-17T01:50:00.718Z,1013.3
2017-07-17T01:51:02.772Z,1013.3
2017-07-17T01:52:04.822Z,1013.3
2017-07-17T01:53:06.870Z,1013.4
2017-07-17T01:54:08.936Z,1013.4
2017-07-17T01:55:10.985Z,1013.4
2017-07-17T01:56:13.035Z,1013.4
2017-07-17T01:57:15.094Z,1013.4
2017-07-17T01:58:17.500Z,1013.3
2017-07-17T01:59:19.554Z,1013.3
2017-07-17T02:00:21.608Z,1013.4
2017-07-17T02:01:23.666Z,1013.3
2017-07-17T02:02:25.722Z,1013.3
2017-07-17T02:03:27.774Z,1013.3
2017-07-17T02:04:29.825Z,1013.3
2017-07-17T02:05:31.886Z,1013.3
2017-07-17T02:06:33.941Z,1013.3
2017-07-17T02:07:35.993Z,1013.3
2017-07-17T02:08:38.049Z,1013.3
2017-07-17T02:09:40.103Z,1013.3
2017-07-17T02:10:42.157Z,1013.4
2017-07-17T02:11:44.205Z,1013.4
2017-07-17T02:12:46.264Z,1013.3
2017-07-17T02:13:48.314Z,1013.4
2017-07-17T02:14:50.363Z,1013.4
2017-07-17T02:15:52.420Z,1013.3
2017-07-17T02:16:54.468Z,1013.3
2017-07-17T02:17:56.525Z,1013.3
2017-07-17T02:18:58.574Z,1013.3
2017-07-17T02:20:00.632Z,1013.3
2017-07-17T02:21:03.033Z,1013.3
2017-07-17T02:22:05.079Z,1013.3
2017-07-17T02:23:07.134Z,1013.3
2017-07-17T02:24:09.191Z,1013.3
2017-07-17T02:25:11.242Z,1013.3
2017-07-17T02:26:13.300Z,1013.3
2017-07-17T02:27:15.355Z,1013.3
2017-07-17T02:28:17.401Z,1013.3
2017-07-17T02:29:19.456Z,1013.3
2017-07-17T02:30:21.504Z,1013.3
2017-07-17T02:31:23.553Z,1013.3
2017-07-17T02:32:25.609Z,1013.3
2017-07-17T02:33:27.656Z,1013.4
2017-07-17T02:34:29.715Z,1013.4
2017-07-17T02:35:31.780Z,1013.3
2017-07-17T02:36:33.887Z,1013.3
2017-07-17T02:37:36.009Z,1013.3
2017-07-17T02:38:38.059Z,1013.3
2017-07-17T02:39:40.110Z,1013.4
2017-07-17T02:40:42.166Z,1013.3
2017-07-17T02:41:44.217Z,1013.4
2017-07-17T02:42:46.265Z,1013.4
2017-07-17T02:43:48.321Z,1013.4
2017-07-17T02:44:50.370Z,1013.3
2017-07-17T02:45:52.430Z,1013.3
2017-07-17T02:46:54.476Z,1013.4
2017-07-17T02:47:56.536Z,1013.4
2017-07-17T02:48:58.586Z,1013.4
2017-07-17T02:50:00.637Z,1013.3
2017-07-17T02:51:02.686Z,1013.4
2017-07-17T02:52:04.734Z,1013.4
2017-07-17T02:53:06.795Z,1013.4
2017-07-17T02:54:08.852Z,1013.4
2017-07-17T02:55:10.903Z,1013.4
2017-07-17T02:56:12.961Z,1013.4
2017-07-17T02:57:15.010Z,1013.3
2017-07-17T02:58:17.071Z,1013.4
2017-07-17T02:59:19.126Z,1013.4
2017-07-17T03:00:21.183Z,1013.4
2017-07-17T03:01:23.233Z,1013.4
2017-07-17T03:02:25.283Z,1013.4
2017-07-17T03:03:27.338Z,1013.4
2017-07-17T03:04:29.395Z,1013.4
2017-07-17T03:05:31.445Z,1013.4
2017-07-17T03:06:33.505Z,1013.5
2017-07-17T03:07:35.555Z,1013.4
2017-07-17T03:08:37.614Z,1013.5
2017-07-17T03:09:39.668Z,1013.4
2017-07-17T03:10:41.722Z,1013.4
2017-07-17T03:11:43.781Z,1013.5
2017-07-17T03:12:45.836Z,1013.5
2017-07-17T03:13:47.891Z,1013.5
2017-07-17T03:14:49.947Z,1013.5
2017-07-17T03:15:52.005Z,1013.5
2017-07-17T03:16:54.057Z,1013.4
2017-07-17T03:17:56.105Z,1013.4
2017-07-17T03:18:58.160Z,1013.5
2017-07-17T03:20:00.211Z,1013.4
2017-07-17T03:21:02.267Z,1013.5
2017-07-17T03:22:04.319Z,1013.5
2017-07-17T03:23:06.368Z,1013.5
2017-07-17T03:24:08.431Z,1013.5
2017-07-17T03:25:10.483Z,1013.5
2017-07-17T03:26:12.535Z,1013.5
2017-07-17T03:27:14.596Z,1013.4
2017-07-17T03:28:16.645Z,1013.5
2017-07-17T03:29:18.703Z,1013.5
2017-07-17T03:30:20.763Z,1013.5
2017-07-17T03:31:22.814Z,1013.5
2017-07-17T03:32:24.871Z,1013.5
2017-07-17T03:33:26.922Z,1013.5
2017-07-17T03:34:28.980Z,1013.5
2017-07-17T03:35:31.042Z,1013.5
2017-07-17T03:36:33.107Z,1013.5
2017-07-17T03:37:35.229Z,1013.5
2017-07-17T03:38:37.280Z,1013.5
2017-07-17T03:39:39.337Z,1013.5
2017-07-17T03:40:41.390Z,1013.6
2017-07-17T03:41:43.447Z,1013.6
2017-07-17T03:42:45.513Z,1013.6
2017-07-17T03:43:47.569Z,1013.6
2017-07-17T03:44:49.615Z,1013.6
2017-07-17T03:45:52.022Z,1013.6
2017-07-17T03:46:54.077Z,1013.6
2017-07-17T03:47:56.129Z,1013.5
2017-07-17T03:48:58.193Z,1013.6
2017-07-17T03:50:00.239Z,1013.6
2017-07-17T03:51:02.634Z,1013.6
2017-07-17T03:52:04.699Z,1013.6
2017-07-17T03:53:06.753Z,1013.6
2017-07-17T03:54:08.808Z,1013.6
2017-07-17T03:55:10.862Z,1013.5
2017-07-17T03:56:12.921Z,1013.6
2017-07-17T03:57:14.971Z,1013.6
2017-07-17T03:58:17.017Z,1013.6
2017-07-17T03:59:19.084Z,1013.6
2017-07-17T04:00:21.136Z,1013.6
2017-07-17T04:01:23.189Z,1013.6
2017-07-17T04:02:25.249Z,1013.6
2017-07-17T04:03:27.296Z,1013.6
2017-07-17T04:04:29.358Z,1013.6
2017-07-17T04:05:31.412Z,1013.6
2017-07-17T04:06:33.469Z,1013.6
2017-07-17T04:07:35.534Z,1013.6
2017-07-17T04:08:37.578Z,1013.6
2017-07-17T04:09:39.634Z,1013.6
2017-07-17T04:10:41.697Z,1013.7
2017-07-17T04:11:43.749Z,1013.7
2017-07-17T04:12:45.809Z,1013.7
2017-07-17T04:13:47.869Z,1013.7
2017-07-17T04:14:49.925Z,1013.7
2017-07-17T04:15:51.977Z,1013.7
2017-07-17T04:16:54.028Z,1013.7
2017-07-17T04:17:56.091Z,1013.7
2017-07-17T04:18:58.146Z,1013.7
2017-07-17T04:20:00.197Z,1013.7
2017-07-17T04:21:02.252Z,1013.7
2017-07-17T04:22:04.301Z,1013.7
2017-07-17T04:23:06.364Z,1013.8
2017-07-17T04:24:08.420Z,1013.8
2017-07-17T04:25:10.467Z,1013.8
2017-07-17T04:26:12.529Z,1013.7
2017-07-17T04:27:14.586Z,1013.7
2017-07-17T04:28:16.641Z,1013.7
2017-07-17T04:29:18.695Z,1013.7
2017-07-17T04:30:20.752Z,1013.7
2017-07-17T04:31:22.820Z,1013.7
2017-07-17T04:32:24.867Z,1013.7
2017-07-17T04:33:26.924Z,1013.7
2017-07-17T04:34:28.982Z,1013.7
2017-07-17T04:35:31.035Z,1013.7
2017-07-17T04:36:33.098Z,1013.7
2017-07-17T04:37:35.174Z,1013.7
2017-07-17T04:38:37.227Z,1013.7
2017-07-17T04:39:39.288Z,1013.7
2017-07-17T04:40:41.331Z,1013.7
2017-07-17T04:41:43.397Z,1013.7
2017-07-17T04:42:45.451Z,1013.7
2017-07-17T04:43:47.496Z,1013.7
2017-07-17T04:44:49.559Z,1013.7
2017-07-17T04:45:51.621Z,1013.7
2017-07-17T04:46:53.671Z,1013.7
2017-07-17T04:47:55.734Z,1013.7
2017-07-17T04:48:57.790Z,1013.7
2017-07-17T04:49:59.855Z,1013.7
2017-07-17T04:51:02.248Z,1013.8
2017-07-17T04:52:04.652Z,1013.7
2017-07-17T04:53:06.710Z,1013.7
2017-07-17T04:54:08.766Z,1013.7
2017-07-17T04:55:10.823Z,1013.7
2017-07-17T04:56:12.883Z,1013.7
2017-07-17T04:57:14.935Z,1013.7
2017-07-17T04:58:17.004Z,1013.7
2017-07-17T04:59:19.055Z,1013.7
2017-07-17T05:00:21.108Z,1013.6
2017-07-17T05:01:23.167Z,1013.7
2017-07-17T05:02:25.225Z,1013.7
2017-07-17T05:03:27.285Z,1013.7
2017-07-17T05:04:29.343Z,1013.7
2017-07-17T05:05:31.397Z,1013.7
2017-07-17T05:06:33.450Z,1013.7
2017-07-17T05:07:35.504Z,1013.8
2017-07-17T05:08:37.565Z,1013.7
2017-07-17T05:09:39.965Z,1013.7
2017-07-17T05:10:42.024Z,1013.8
2017-07-17T05:11:44.087Z,1013.8
2017-07-17T05:12:46.135Z,1013.7
2017-07-17T05:13:48.192Z,1013.7
2017-07-17T05:14:50.255Z,1013.7
2017-07-17T05:15:52.314Z,1013.8
2017-07-17T05:16:54.377Z,1013.8
2017-07-17T05:17:56.435Z,1013.8
2017-07-17T05:18:58.491Z,1013.8
2017-07-17T05:20:01.432Z,1013.8
2017-07-17T05:21:04.989Z,1013.8
2017-07-17T05:22:07.400Z,1013.8
2017-07-17T05:23:09.459Z,1013.8
2017-07-17T05:24:11.508Z,1013.8
2017-07-17T05:25:13.600Z,1013.8
2017-07-17T05:26:15.677Z,1013.8
2017-07-17T05:27:17.733Z,1013.8
2017-07-17T05:28:19.796Z,1013.8
2017-07-17T05:29:21.886Z,1013.8
2017-07-17T05:30:23.944Z,1013.9
2017-07-17T05:31:25.995Z,1013.8
2017-07-17T05:32:28.051Z,1013.8
2017-07-17T05:33:30.114Z,1013.9
2017-07-17T05:34:32.171Z,1013.8
2017-07-17T05:35:34.234Z,1013.8
2017-07-17T05:36:36.330Z,1013.9
2017-07-17T05:37:38.425Z,1013.9
2017-07-17T05:38:40.491Z,1013.9
2017-07-17T05:39:42.547Z,1013.9
2017-07-17T05:40:44.601Z,1013.8
2017-07-17T05:41:46.661Z,1013.8
2017-07-17T05:42:48.720Z,1013.8
2017-07-17T05:43:50.781Z,1013.8
2017-07-17T05:44:52.842Z,1013.8
2017-07-17T05:45:54.898Z,1013.8
2017-07-17T05:46:56.964Z,1013.8
2017-07-17T05:47:59.009Z,1013.8
2017-07-17T05:49:01.068Z,1013.9
2017-07-17T05:50:03.138Z,1013.9
2017-07-17T05:51:05.191Z,1013.9
2017-07-17T05:52:07.245Z,1013.9
2017-07-17T05:53:09.661Z,1013.9
2017-07-17T05:54:11.718Z,1014
2017-07-17T05:55:13.784Z,1014
2017-07-17T05:56:15.842Z,1014
2017-07-17T05:57:17.903Z,1014
2017-07-17T05:58:19.959Z,1014
2017-07-17T05:59:22.017Z,1014
2017-07-17T06:00:24.072Z,1014
2017-07-17T06:01:26.128Z,1014
2017-07-17T06:02:28.186Z,1014.1
2017-07-17T06:03:30.248Z,1014
2017-07-17T06:04:32.304Z,1014
2017-07-17T06:05:34.365Z,1014.1
2017-07-17T06:06:36.417Z,1014
2017-07-17T06:07:38.479Z,1014.1
2017-07-17T06:08:40.901Z,1014.1
2017-07-17T06:09:42.970Z,1014.1
2017-07-17T06:10:45.027Z,1014.1
2017-07-17T06:11:47.093Z,1014.1
2017-07-17T06:12:49.147Z,1014.1
2017-07-17T06:13:51.209Z,1014.1
2017-07-17T06:14:53.268Z,1014.1
2017-07-17T06:15:55.323Z,1014.1
2017-07-17T06:16:57.381Z,1014.1
2017-07-17T06:17:59.437Z,1014.2
2017-07-17T06:19:01.498Z,1014.1
2017-07-17T06:20:03.561Z,1014.1
2017-07-17T06:21:05.620Z,1014.2
2017-07-17T06:22:07.683Z,1014.2
2017-07-17T06:23:09.736Z,1014.2
2017-07-17T06:24:11.796Z,1014.2
2017-07-17T06:25:13.861Z,1014.2
2017-07-17T06:26:15.915Z,1014.2
2017-07-17T06:27:17.980Z,1014.3
2017-07-17T06:28:20.030Z,1014.2
2017-07-17T06:29:22.086Z,1014.2
2017-07-17T06:30:24.155Z,1014.3
2017-07-17T06:31:26.211Z,1014.3
2017-07-17T06:32:28.271Z,1014.3
2017-07-17T06:33:30.333Z,1014.3
2017-07-17T06:34:32.396Z,1014.3
2017-07-17T06:35:34.443Z,1014.3
2017-07-17T06:36:36.526Z,1014.3
2017-07-17T06:37:38.636Z,1014.3
2017-07-17T06:38:40.689Z,1014.3
2017-07-17T06:39:42.753Z,1014.3
2017-07-17T06:40:44.816Z,1014.3
2017-07-17T06:41:46.872Z,1014.3
2017-07-17T06:42:48.937Z,1014.3
2017-07-17T06:43:50.994Z,1014.3
2017-07-17T06:44:53.406Z,1014.3
2017-07-17T06:45:55.468Z,1014.3
2017-07-17T06:46:57.527Z,1014.3
2017-07-17T06:47:59.585Z,1014.3
2017-07-17T06:49:02.005Z,1014.3
2017-07-17T06:50:04.063Z,1014.4
2017-07-17T06:51:06.117Z,1014.4
2017-07-17T06:52:08.176Z,1014.4
2017-07-17T06:53:10.232Z,1014.4
2017-07-17T06:54:12.287Z,1014.4
2017-07-17T06:55:14.348Z,1014.4
2017-07-17T06:56:16.407Z,1014.4
2017-07-17T06:57:18.469Z,1014.3
2017-07-17T06:58:20.532Z,1014.4
2017-07-17T06:59:22.600Z,1014.3
2017-07-17T07:00:24.665Z,1014.3
2017-07-17T07:01:26.716Z,1014.3
2017-07-17T07:02:28.785Z,1014.3
2017-07-17T07:03:30.848Z,1014.4
2017-07-17T07:04:32.909Z,1014.4
2017-07-17T07:05:34.977Z,1014.4
2017-07-17T07:06:37.033Z,1014.4
2017-07-17T07:07:39.096Z,1014.5
2017-07-17T07:08:41.156Z,1014.4
2017-07-17T07:09:43.214Z,1014.4
2017-07-17T07:10:45.290Z,1014.5
2017-07-17T07:11:47.351Z,1014.4
2017-07-17T07:12:49.409Z,1014.4
2017-07-17T07:13:51.472Z,1014.4
2017-07-17T07:14:53.533Z,1014.4
2017-07-17T07:15:55.587Z,1014.4
2017-07-17T07:16:57.646Z,1014.4
2017-07-17T07:17:59.718Z,1014.4
2017-07-17T07:19:01.774Z,1014.4
2017-07-17T07:20:03.833Z,1014.4
2017-07-17T07:21:05.902Z,1014.4
2017-07-17T07:22:07.964Z,1014.4
2017-07-17T07:23:10.032Z,1014.3
2017-07-17T07:24:12.086Z,1014.3
2017-07-17T07:25:14.159Z,1014.4
2017-07-17T07:26:16.221Z,1014.4
2017-07-17T07:27:18.272Z,1014.4
2017-07-17T07:28:20.338Z,1014.4
2017-07-17T07:29:22.406Z,1014.3
2017-07-17T07:30:24.473Z,1014.3
2017-07-17T07:31:26.543Z,1014.3
2017-07-17T07:32:28.604Z,1014.4
2017-07-17T07:33:30.669Z,1014.4
2017-07-17T07:34:32.737Z,1014.3
2017-07-17T07:35:34.804Z,1014.3
2017-07-17T07:36:36.871Z,1014.3
2017-07-17T07:37:38.970Z,1014.3
2017-07-17T07:38:41.037Z,1014.3
2017-07-17T07:39:43.102Z,1014.3
2017-07-17T07:40:45.162Z,1014.3
2017-07-17T07:41:47.231Z,1014.3
2017-07-17T07:42:49.291Z,1014.3
2017-07-17T07:43:51.350Z,1014.3
2017-07-17T07:44:53.412Z,1014.3
2017-07-17T07:45:55.484Z,1014.3
2017-07-17T07:46:57.543Z,1014.3
2017-07-17T07:47:59.605Z,1014.3
2017-07-17T07:49:01.674Z,1014.3
2017-07-17T07:50:03.750Z,1014.4
2017-07-17T07:51:05.803Z,1014.3
2017-07-17T07:52:07.873Z,1014.3
2017-07-17T07:53:09.937Z,1014.3
2017-07-17T07:54:12.002Z,1014.3
2017-07-17T07:55:14.061Z,1014.3
2017-07-17T07:56:16.120Z,1014.3
2017-07-17T07:57:18.181Z,1014.3
2017-07-17T07:58:20.259Z,1014.3
2017-07-17T07:59:22.312Z,1014.3
2017-07-17T08:00:24.382Z,1014.3
2017-07-17T08:01:26.442Z,1014.3
2017-07-17T08:02:28.501Z,1014.3
2017-07-17T08:03:30.563Z,1014.3
2017-07-17T08:04:32.628Z,1014.3
2017-07-17T08:05:34.697Z,1014.3
2017-07-17T08:06:36.761Z,1014.3
2017-07-17T08:07:38.822Z,1014.4
2017-07-17T08:08:40.899Z,1014.4
2017-07-17T08:09:42.955Z,1014.3
2017-07-17T08:10:45.026Z,1014.3
2017-07-17T08:11:47.096Z,1014.3
2017-07-17T08:12:49.153Z,1014.3
2017-07-17T08:13:51.222Z,1014.3
2017-07-17T08:14:53.285Z,1014.3
2017-07-17T08:15:55.355Z,1014.4
2017-07-17T08:16:57.423Z,1014.3
2017-07-17T08:17:59.485Z,1014.4
2017-07-17T08:19:01.553Z,1014.4
2017-07-17T08:20:03.613Z,1014.4
2017-07-17T08:21:05.679Z,1014.4
2017-07-17T08:22:07.739Z,1014.4
2017-07-17T08:23:09.798Z,1014.5
2017-07-17T08:24:12.232Z,1014.5
2017-07-17T08:25:14.291Z,1014.5
2017-07-17T08:26:16.351Z,1014.5
2017-07-17T08:27:18.417Z,1014.5
2017-07-17T08:28:20.483Z,1014.5
2017-07-17T08:29:22.547Z,1014.5
2017-07-17T08:30:24.608Z,1014.5
2017-07-17T08:31:26.681Z,1014.5
2017-07-17T08:32:28.747Z,1014.5
2017-07-17T08:33:30.806Z,1014.5
2017-07-17T08:34:32.874Z,1014.5
2017-07-17T08:35:34.945Z,1014.5
2017-07-17T08:36:37.041Z,1014.5
2017-07-17T08:37:39.143Z,1014.4
2017-07-17T08:38:41.218Z,1014.4
2017-07-17T08:39:43.292Z,1014.4
2017-07-17T08:40:45.349Z,1014.5
2017-07-17T08:41:47.409Z,1014.4
2017-07-17T08:42:49.480Z,1014.5
2017-07-17T08:43:51.539Z,1014.5
2017-07-17T08:44:53.604Z,1014.5
2017-07-17T08:45:55.665Z,1014.4
2017-07-17T08:46:57.734Z,1014.4
2017-07-17T08:47:59.807Z,1014.4
2017-07-17T08:49:01.877Z,1014.4
2017-07-17T08:50:04.273Z,1014.4
2017-07-17T08:51:06.340Z,1014.5
2017-07-17T08:52:08.411Z,1014.5
2017-07-17T08:53:10.832Z,1014.4
2017-07-17T08:54:12.891Z,1014.4
2017-07-17T08:55:14.959Z,1014.5
2017-07-17T08:56:17.021Z,1014.4
2017-07-17T08:57:19.080Z,1014.4
2017-07-17T08:58:21.146Z,1014.4
2017-07-17T08:59:23.219Z,1014.4
2017-07-17T09:00:25.283Z,1014.4
2017-07-17T09:01:27.698Z,1014.4
2017-07-17T09:02:29.757Z,1014.3
2017-07-17T09:03:31.825Z,1014.3
2017-07-17T09:04:33.893Z,1014.3
2017-07-17T09:05:35.955Z,1014.3
2017-07-17T09:06:38.028Z,1014.3
2017-07-17T09:07:40.090Z,1014.3
2017-07-17T09:08:42.148Z,1014.3
2017-07-17T09:09:44.216Z,1014.3
2017-07-17T09:10:46.288Z,1014.3
2017-07-17T09:11:48.350Z,1014.3
2017-07-17T09:12:50.416Z,1014.2
2017-07-17T09:13:52.476Z,1014.2
2017-07-17T09:14:54.547Z,1014.3
2017-07-17T09:15:56.610Z,1014.2
2017-07-17T09:16:58.680Z,1014.3
2017-07-17T09:18:00.746Z,1014.3
2017-07-17T09:19:02.819Z,1014.3
2017-07-17T09:20:04.888Z,1014.2
2017-07-17T09:21:06.954Z,1014.3
2017-07-17T09:22:09.021Z,1014.3
2017-07-17T09:23:11.093Z,1014.3
2017-07-17T09:24:13.165Z,1014.3
2017-07-17T09:25:15.224Z,1014.3
2017-07-17T09:26:17.299Z,1014.2
2017-07-17T09:27:19.749Z,1014.3
2017-07-17T09:28:21.812Z,1014.3
2017-07-17T09:29:23.883Z,1014.3
2017-07-17T09:30:25.942Z,1014.2
2017-07-17T09:31:28.357Z,1014.2
2017-07-17T09:32:30.434Z,1014.2
2017-07-17T09:33:32.488Z,1014.3
2017-07-17T09:34:34.562Z,1014.2
2017-07-17T09:35:36.625Z,1014.3
2017-07-17T09:36:38.693Z,1014.2
2017-07-17T09:37:40.784Z,1014.2
2017-07-17T09:38:42.852Z,1014.2
2017-07-17T09:39:44.930Z,1014.2
2017-07-17T09:40:47.002Z,1014.2
2017-07-17T09:41:49.067Z,1014.3
2017-07-17T09:42:51.145Z,1014.2
2017-07-17T09:43:53.209Z,1014.2
2017-07-17T09:44:55.277Z,1014.3
2017-07-17T09:45:57.349Z,1014.3
2017-07-17T09:46:59.412Z,1014.3
2017-07-17T09:48:01.484Z,1014.3
2017-07-17T09:49:03.546Z,1014.3
2017-07-17T09:50:05.618Z,1014.3
2017-07-17T09:51:07.689Z,1014.3
2017-07-17T09:52:09.759Z,1014.3
2017-07-17T09:53:11.817Z,1014.4
2017-07-17T09:54:13.903Z,1014.3
2017-07-17T09:55:15.968Z,1014.4
2017-07-17T09:56:18.059Z,1014.4
2017-07-17T09:57:20.115Z,1014.3
2017-07-17T09:58:22.186Z,1014.3
2017-07-17T09:59:24.259Z,1014.3
2017-07-17T10:00:26.333Z,1014.3
2017-07-17T10:01:28.398Z,1014.2
2017-07-17T10:02:30.468Z,1014.2
2017-07-17T10:03:32.534Z,1014.2
2017-07-17T10:04:34.613Z,1014.2
2017-07-17T10:05:36.673Z,1014.3
2017-07-17T10:06:38.744Z,1014.3
2017-07-17T10:07:41.164Z,1014.2
2017-07-17T10:08:43.233Z,1014.3
2017-07-17T10:09:45.300Z,1014.3
2017-07-17T10:10:47.365Z,1014.3
2017-07-17T10:11:49.438Z,1014.3
2017-07-17T10:12:51.513Z,1014.3
2017-07-17T10:13:53.578Z,1014.3
2017-07-17T10:14:55.659Z,1014.3
2017-07-17T10:15:57.722Z,1014.3
2017-07-17T10:16:59.793Z,1014.3
2017-07-17T10:18:01.856Z,1014.3
2017-07-17T10:19:03.929Z,1014.2
2017-07-17T10:20:06.010Z,1014.2
2017-07-17T10:21:08.072Z,1014.2
2017-07-17T10:22:10.147Z,1014.2
2017-07-17T10:23:12.262Z,1014.2
2017-07-17T10:24:14.567Z,1014.2
2017-07-17T10:25:16.636Z,1014.3
2017-07-17T10:26:18.697Z,1014.2
2017-07-17T10:27:20.780Z,1014.3
2017-07-17T10:28:22.852Z,1014.2
2017-07-17T10:29:24.917Z,1014.2
2017-07-17T10:30:26.991Z,1014.2
2017-07-17T10:31:29.068Z,1014.2
2017-07-17T10:32:31.144Z,1014.2
2017-07-17T10:33:33.211Z,1014.3
2017-07-17T10:34:35.295Z,1014.2
2017-07-17T10:35:37.375Z,1014.3
2017-07-17T10:36:39.434Z,1014.3
2017-07-17T10:37:41.518Z,1014.3
2017-07-17T10:38:43.592Z,1014.3
2017-07-17T10:39:45.662Z,1014.3
2017-07-17T10:40:47.731Z,1014.3
2017-07-17T10:41:49.801Z,1014.4
2017-07-17T10:42:51.871Z,1014.4
2017-07-17T10:43:53.942Z,1014.3
2017-07-17T10:44:56.014Z,1014.3
2017-07-17T10:45:58.078Z,1014.3
2017-07-17T10:47:00.157Z,1014.4
2017-07-17T10:48:02.223Z,1014.3
2017-07-17T10:49:04.295Z,1014.3
2017-07-17T10:50:06.371Z,1014.3
2017-07-17T10:51:08.439Z,1014.3
2017-07-17T10:52:10.513Z,1014.4
2017-07-17T10:53:12.579Z,1014.3
2017-07-17T10:54:14.650Z,1014.2
2017-07-17T10:55:17.074Z,1014.2
2017-07-17T10:56:19.140Z,1014.3
2017-07-17T10:57:21.213Z,1014.2
2017-07-17T10:58:23.288Z,1014.2
2017-07-17T10:59:25.366Z,1014.3
2017-07-17T11:00:27.424Z,1014.2
2017-07-17T11:01:29.496Z,1014.3
2017-07-17T11:02:31.574Z,1014.3
2017-07-17T11:03:33.643Z,1014.3
2017-07-17T11:04:35.864Z,1014.3
2017-07-17T11:05:37.973Z,1014.3
2017-07-17T11:06:40.042Z,1014.4
2017-07-17T11:07:42.120Z,1014.4
2017-07-17T11:08:44.190Z,1014.4
2017-07-17T11:09:46.268Z,1014.4
2017-07-17T11:10:48.339Z,1014.3
2017-07-17T11:11:50.406Z,1014.3
2017-07-17T11:12:52.481Z,1014.4
2017-07-17T11:13:54.607Z,1014.3
2017-07-17T11:14:56.680Z,1014.3
2017-07-17T11:15:58.745Z,1014.3
2017-07-17T11:17:00.884Z,1014.2
2017-07-17T11:18:03.225Z,1014.3
2017-07-17T11:19:05.574Z,1014.3
2017-07-17T11:20:07.871Z,1014.4
2017-07-17T11:21:10.563Z,1014.3
2017-07-17T11:22:12.957Z,1014.4
2017-07-17T11:23:15.227Z,1014.4
2017-07-17T11:24:17.658Z,1014.4
2017-07-17T11:25:20.104Z,1014.4
2017-07-17T11:26:22.500Z,1014.5
2017-07-17T11:27:24.963Z,1014.4
2017-07-17T11:28:27.408Z,1014.4
2017-07-17T11:29:29.873Z,1014.4
2017-07-17T11:30:32.359Z,1014.4
2017-07-17T11:31:34.830Z,1014.4
2017-07-17T11:32:37.376Z,1014.3
2017-07-17T11:33:39.898Z,1014.4
2017-07-17T11:34:42.366Z,1014.4
2017-07-17T11:35:44.866Z,1014.3
2017-07-17T11:36:47.334Z,1014.4
2017-07-17T11:37:49.801Z,1014.4
2017-07-17T11:38:52.313Z,1014.3
2017-07-17T11:39:54.815Z,1014.3
2017-07-17T11:40:57.218Z,1014.3
2017-07-17T11:41:59.723Z,1014.4
2017-07-17T11:43:02.154Z,1014.3
2017-07-17T11:44:04.565Z,1014.3
2017-07-17T11:45:06.988Z,1014.3
2017-07-17T11:56:45.326Z,1014.3
2017-07-17T11:58:49.794Z,1014.3
2017-07-17T11:59:51.902Z,1014.2
2017-07-17T12:00:53.977Z,1014.2
2017-07-17T12:01:56.054Z,1014.2
2017-07-17T12:02:58.126Z,1014.3
2017-07-17T12:04:00.208Z,1014.2
2017-07-17T12:06:04.313Z,1014.2
2017-07-17T12:07:06.391Z,1014.3
2017-07-17T12:08:08.820Z,1014.3
2017-07-17T12:09:10.892Z,1014.2
2017-07-17T12:10:12.969Z,1014.2
2017-07-17T12:11:15.047Z,1014.3
2017-07-17T12:12:17.118Z,1014.3
2017-07-17T12:13:19.193Z,1014.4
2017-07-17T12:14:21.275Z,1014.3
2017-07-17T12:15:23.346Z,1014.3
2017-07-17T12:16:25.412Z,1014.3
2017-07-17T12:17:27.488Z,1014.3
2017-07-17T12:18:29.568Z,1014.3
2017-07-17T12:19:31.996Z,1014.3
2017-07-17T12:20:34.066Z,1014.3
2017-07-17T12:21:36.144Z,1014.3
2017-07-17T12:22:38.224Z,1014.3
2017-07-17T12:23:40.281Z,1014.3
2017-07-17T12:24:42.362Z,1014.3
2017-07-17T12:25:44.435Z,1014.3
2017-07-17T12:26:46.510Z,1014.4
2017-07-17T12:27:48.586Z,1014.3
2017-07-17T12:28:50.656Z,1014.3
2017-07-17T12:29:52.724Z,1014.3
2017-07-17T12:30:54.809Z,1014.3
2017-07-17T12:31:57.217Z,1014.3
2017-07-17T12:32:59.301Z,1014.3
2017-07-17T12:34:01.379Z,1014.3
2017-07-17T12:35:03.448Z,1014.3
2017-07-17T12:36:05.522Z,1014.3
2017-07-17T12:37:07.598Z,1014.3
2017-07-17T12:38:09.683Z,1014.2
2017-07-17T12:39:11.754Z,1014.2
2017-07-17T12:40:13.825Z,1014.2
2017-07-17T12:41:15.909Z,1014.2
2017-07-17T12:42:17.985Z,1014.2
2017-07-17T12:43:20.072Z,1014.2
2017-07-17T12:44:22.146Z,1014.2
2017-07-17T12:45:24.223Z,1014.1
2017-07-17T12:46:26.305Z,1014.1
2017-07-17T12:47:28.382Z,1014.1
2017-07-17T12:48:30.462Z,1014.1
2017-07-17T12:49:32.527Z,1014.1
2017-07-17T12:50:34.609Z,1014.2
2017-07-17T12:51:36.695Z,1014.2
2017-07-17T12:52:38.769Z,1014.2
2017-07-17T12:53:41.189Z,1014.2
2017-07-17T12:54:43.255Z,1014.2
2017-07-17T12:55:45.336Z,1014.2
2017-07-17T12:56:47.398Z,1014.3
2017-07-17T12:57:49.470Z,1014.3
2017-07-17T12:58:51.556Z,1014.3
2017-07-17T12:59:53.629Z,1014.3
2017-07-17T13:00:55.703Z,1014.3
2017-07-17T13:01:57.781Z,1014.3
2017-07-17T13:02:59.861Z,1014.3
2017-07-17T13:04:01.933Z,1014.2
2017-07-17T13:05:04.005Z,1014.2
2017-07-17T13:06:06.085Z,1014.2
2017-07-17T13:07:08.514Z,1014.3
2017-07-17T13:08:10.590Z,1014.3
2017-07-17T13:09:13.007Z,1014.3
2017-07-17T13:10:15.437Z,1014.3